sensor_id;sensor_type;location;lat;lon;timestamp;P1;durP1;ratioP1;P2;durP2;ratioP2
4365;SDS011;2196;47.422;9.656;2022-10-03T00:02:17;0.10;;;0.10;;
4365;SDS011;2196;47.422;9.656;2022-10-03T00:04:57;0.00;;;0.00;;
4365;SDS011;2196;47.422;9.656;2022-10-03T00:10:32;0.00;;;0.00;;
4365;SDS011;2196;47.422;9.656;2022-10-03T00:13:15;0.00;;;0.00;;
4365;SDS011;2196;47.422;9.656;2022-10-03T00:15:51;0.30;;;0.10;;
4365;SDS011;2196;47.422;9.656;2022-10-03T00:18:32;0.10;;;0.10;;
4365;SDS011;2196;47.422;9.656;2022-10-03T00:21:13;0.00;;;0.00;;
4365;SDS011;2196;47.422;9.656;2022-10-03T00:23:49;0.10;;;0.10;;
4365;SDS011;2196;47.422;9.656;2022-10-03T00:26:25;0.40;;;0.30;;
4365;SDS011;2196;47.422;9.656;2022-10-03T00:29:05;0.30;;;0.30;;
4365;SDS011;2196;47.422;9.656;2022-10-03T00:31:48;0.00;;;0.00;;
4365;SDS011;2196;47.422;9.656;2022-10-03T00:34:25;1.30;;;0.57;;
4365;SDS011;2196;47.422;9.656;2022-10-03T00:37:07;0.23;;;0.10;;
4365;SDS011;2196;47.422;9.656;2022-10-03T00:39:55;0.00;;;0.00;;
4365;SDS011;2196;47.422;9.656;2022-10-03T00:43:01;0.50;;;0.10;;
4365;SDS011;2196;47.422;9.656;2022-10-03T00:45:47;0.03;;;0.00;;
4365;SDS011;2196;47.422;9.656;2022-10-03T00:51:49;0.00;;;0.00;;
4365;SDS011;2196;47.422;9.656;2022-10-03T00:54:31;0.00;;;0.00;;
4365;SDS011;2196;47.422;9.656;2022-10-03T00:57:18;0.00;;;0.00;;
4365;SDS011;2196;47.422;9.656;2022-10-03T01:00:03;0.00;;;0.00;;
4365;SDS011;2196;47.422;9.656;2022-10-03T01:02:45;0.10;;;0.10;;
4365;SDS011;2196;47.422;9.656;2022-10-03T01:05:24;0.00;;;0.00;;
4365;SDS011;2196;47.422;9.656;2022-10-03T01:08:08;0.00;;;0.00;;
4365;SDS011;2196;47.422;9.656;2022-10-03T01:11:05;0.10;;;0.10;;
4365;SDS011;2196;47.422;9.656;2022-10-03T01:13:45;0.63;;;0.00;;
4365;SDS011;2196;47.422;9.656;2022-10-03T01:16:23;0.00;;;0.00;;
4365;SDS011;2196;47.422;9.656;2022-10-03T01:19:04;0.00;;;0.00;;
4365;SDS011;2196;47.422;9.656;2022-10-03T01:21:46;0.00;;;0.00;;
4365;SDS011;2196;47.422;9.656;2022-10-03T01:24:35;0.00;;;0.00;;
4365;SDS011;2196;47.422;9.656;2022-10-03T01:27:23;0.00;;;0.00;;
4365;SDS011;2196;47.422;9.656;2022-10-03T01:30:21;0.10;;;0.03;;
4365;SDS011;2196;47.422;9.656;2022-10-03T01:32:49;0.00;;;0.00;;
4365;SDS011;2196;47.422;9.656;2022-10-03T01:35:25;0.10;;;0.10;;
4365;SDS011;2196;47.422;9.656;2022-10-03T01:38:02;0.50;;;0.20;;
4365;SDS011;2196;47.422;9.656;2022-10-03T01:40:41;0.10;;;0.10;;
4365;SDS011;2196;47.422;9.656;2022-10-03T01:43:14;0.10;;;0.10;;
4365;SDS011;2196;47.422;9.656;2022-10-03T01:45:48;0.30;;;0.30;;
4365;SDS011;2196;47.422;9.656;2022-10-03T01:48:29;26.53;;;17.33;;
4365;SDS011;2196;47.422;9.656;2022-10-03T01:51:02;29.03;;;19.77;;
4365;SDS011;2196;47.422;9.656;2022-10-03T01:53:53;2.20;;;2.03;;
4365;SDS011;2196;47.422;9.656;2022-10-03T01:56:31;0.97;;;0.30;;
4365;SDS011;2196;47.422;9.656;2022-10-03T01:59:05;0.97;;;0.00;;
4365;SDS011;2196;47.422;9.656;2022-10-03T02:01:43;3.60;;;3.40;;
4365;SDS011;2196;47.422;9.656;2022-10-03T02:04:14;2.13;;;2.03;;
4365;SDS011;2196;47.422;9.656;2022-10-03T02:06:52;2.07;;;1.97;;
4365;SDS011;2196;47.422;9.656;2022-10-03T02:09:25;1.13;;;1.13;;
4365;SDS011;2196;47.422;9.656;2022-10-03T02:12:05;0.70;;;0.70;;
4365;SDS011;2196;47.422;9.656;2022-10-03T02:14:39;3.13;;;0.43;;
4365;SDS011;2196;47.422;9.656;2022-10-03T02:17:20;0.10;;;0.10;;
4365;SDS011;2196;47.422;9.656;2022-10-03T02:19:55;0.00;;;0.00;;
4365;SDS011;2196;47.422;9.656;2022-10-03T02:22:28;0.10;;;0.00;;
4365;SDS011;2196;47.422;9.656;2022-10-03T02:25:05;0.00;;;0.00;;
4365;SDS011;2196;47.422;9.656;2022-10-03T02:30:41;0.30;;;0.30;;
4365;SDS011;2196;47.422;9.656;2022-10-03T02:33:39;0.63;;;0.30;;
4365;SDS011;2196;47.422;9.656;2022-10-03T02:36:54;2.40;;;0.33;;
4365;SDS011;2196;47.422;9.656;2022-10-03T02:39:51;0.43;;;0.30;;
4365;SDS011;2196;47.422;9.656;2022-10-03T02:46:09;1.00;;;0.63;;
4365;SDS011;2196;47.422;9.656;2022-10-03T02:49:06;1.67;;;0.97;;
4365;SDS011;2196;47.422;9.656;2022-10-03T02:54:54;1.30;;;0.80;;
4365;SDS011;2196;47.422;9.656;2022-10-03T02:57:44;2.13;;;0.50;;
4365;SDS011;2196;47.422;9.656;2022-10-03T03:00:34;0.50;;;0.50;;
4365;SDS011;2196;47.422;9.656;2022-10-03T03:03:25;1.50;;;0.90;;
4365;SDS011;2196;47.422;9.656;2022-10-03T03:06:16;0.60;;;0.60;;
4365;SDS011;2196;47.422;9.656;2022-10-03T03:09:15;0.80;;;0.50;;
4365;SDS011;2196;47.422;9.656;2022-10-03T03:12:13;2.83;;;0.67;;
4365;SDS011;2196;47.422;9.656;2022-10-03T03:18:21;0.60;;;0.60;;
4365;SDS011;2196;47.422;9.656;2022-10-03T03:21:01;0.50;;;0.50;;
4365;SDS011;2196;47.422;9.656;2022-10-03T03:23:47;1.50;;;0.80;;
4365;SDS011;2196;47.422;9.656;2022-10-03T03:29:37;2.40;;;1.40;;
4365;SDS011;2196;47.422;9.656;2022-10-03T03:32:14;0.60;;;0.60;;
4365;SDS011;2196;47.422;9.656;2022-10-03T03:34:53;2.77;;;1.17;;
4365;SDS011;2196;47.422;9.656;2022-10-03T03:37:29;1.10;;;1.00;;
4365;SDS011;2196;47.422;9.656;2022-10-03T03:40:09;2.30;;;0.90;;
4365;SDS011;2196;47.422;9.656;2022-10-03T03:45:55;0.83;;;0.83;;
4365;SDS011;2196;47.422;9.656;2022-10-03T03:48:42;0.77;;;0.70;;
4365;SDS011;2196;47.422;9.656;2022-10-03T03:51:38;0.63;;;0.63;;
4365;SDS011;2196;47.422;9.656;2022-10-03T03:54:14;0.80;;;0.80;;
4365;SDS011;2196;47.422;9.656;2022-10-03T03:57:01;0.77;;;0.77;;
4365;SDS011;2196;47.422;9.656;2022-10-03T03:59:42;1.17;;;1.13;;
4365;SDS011;2196;47.422;9.656;2022-10-03T04:02:26;1.00;;;1.00;;
4365;SDS011;2196;47.422;9.656;2022-10-03T04:05:07;1.43;;;0.90;;
4365;SDS011;2196;47.422;9.656;2022-10-03T04:07:50;1.90;;;0.83;;
4365;SDS011;2196;47.422;9.656;2022-10-03T04:10:39;1.33;;;1.13;;
4365;SDS011;2196;47.422;9.656;2022-10-03T04:13:22;1.63;;;1.10;;
4365;SDS011;2196;47.422;9.656;2022-10-03T04:16:11;0.77;;;0.77;;
4365;SDS011;2196;47.422;9.656;2022-10-03T04:19:09;1.33;;;0.77;;
4365;SDS011;2196;47.422;9.656;2022-10-03T04:21:47;0.60;;;0.60;;
4365;SDS011;2196;47.422;9.656;2022-10-03T04:24:49;1.43;;;0.73;;
4365;SDS011;2196;47.422;9.656;2022-10-03T04:30:30;6.03;;;1.10;;
4365;SDS011;2196;47.422;9.656;2022-10-03T04:33:15;1.60;;;0.93;;
4365;SDS011;2196;47.422;9.656;2022-10-03T04:38:53;1.03;;;0.90;;
4365;SDS011;2196;47.422;9.656;2022-10-03T04:41:33;0.77;;;0.77;;
4365;SDS011;2196;47.422;9.656;2022-10-03T04:44:09;0.93;;;0.93;;
4365;SDS011;2196;47.422;9.656;2022-10-03T04:46:49;1.27;;;1.17;;
4365;SDS011;2196;47.422;9.656;2022-10-03T04:49:23;2.00;;;1.30;;
4365;SDS011;2196;47.422;9.656;2022-10-03T04:51:57;2.00;;;0.80;;
4365;SDS011;2196;47.422;9.656;2022-10-03T04:54:32;1.20;;;1.10;;
4365;SDS011;2196;47.422;9.656;2022-10-03T04:57:14;1.27;;;1.17;;
4365;SDS011;2196;47.422;9.656;2022-10-03T04:59:49;1.47;;;1.07;;
4365;SDS011;2196;47.422;9.656;2022-10-03T05:02:27;2.13;;;0.90;;
4365;SDS011;2196;47.422;9.656;2022-10-03T05:05:06;0.97;;;0.97;;
4365;SDS011;2196;47.422;9.656;2022-10-03T05:07:46;1.73;;;1.03;;
4365;SDS011;2196;47.422;9.656;2022-10-03T05:10:39;0.80;;;0.80;;
4365;SDS011;2196;47.422;9.656;2022-10-03T05:13:18;1.37;;;1.27;;
4365;SDS011;2196;47.422;9.656;2022-10-03T05:15:55;1.40;;;1.00;;
4365;SDS011;2196;47.422;9.656;2022-10-03T05:18:36;0.90;;;0.90;;
4365;SDS011;2196;47.422;9.656;2022-10-03T05:21:10;3.53;;;1.27;;
4365;SDS011;2196;47.422;9.656;2022-10-03T05:23:43;1.13;;;1.13;;
4365;SDS011;2196;47.422;9.656;2022-10-03T05:26:21;1.87;;;1.20;;
4365;SDS011;2196;47.422;9.656;2022-10-03T05:28:53;1.43;;;1.43;;
4365;SDS011;2196;47.422;9.656;2022-10-03T05:31:30;2.40;;;2.30;;
4365;SDS011;2196;47.422;9.656;2022-10-03T05:34:09;2.67;;;1.70;;
4365;SDS011;2196;47.422;9.656;2022-10-03T05:36:59;1.50;;;1.40;;
4365;SDS011;2196;47.422;9.656;2022-10-03T05:39:50;2.83;;;2.30;;
4365;SDS011;2196;47.422;9.656;2022-10-03T05:42:28;2.47;;;2.20;;
4365;SDS011;2196;47.422;9.656;2022-10-03T05:45:04;3.40;;;2.37;;
4365;SDS011;2196;47.422;9.656;2022-10-03T05:47:48;3.10;;;2.40;;
4365;SDS011;2196;47.422;9.656;2022-10-03T05:50:42;2.73;;;2.20;;
4365;SDS011;2196;47.422;9.656;2022-10-03T05:59:45;2.73;;;2.60;;
4365;SDS011;2196;47.422;9.656;2022-10-03T06:05:29;2.03;;;1.83;;
4365;SDS011;2196;47.422;9.656;2022-10-03T06:11:16;1.80;;;1.70;;
4365;SDS011;2196;47.422;9.656;2022-10-03T06:14:07;1.63;;;1.63;;
4365;SDS011;2196;47.422;9.656;2022-10-03T06:16:54;1.80;;;1.77;;
4365;SDS011;2196;47.422;9.656;2022-10-03T06:19:33;3.15;;;2.35;;
4365;SDS011;2196;47.422;9.656;2022-10-03T06:25:22;2.87;;;2.67;;
4365;SDS011;2196;47.422;9.656;2022-10-03T06:30:56;2.20;;;2.10;;
4365;SDS011;2196;47.422;9.656;2022-10-03T06:36:49;2.33;;;2.23;;
4365;SDS011;2196;47.422;9.656;2022-10-03T06:46:09;4.73;;;2.60;;
4365;SDS011;2196;47.422;9.656;2022-10-03T06:49:05;2.40;;;2.03;;
4365;SDS011;2196;47.422;9.656;2022-10-03T06:52:00;3.27;;;2.67;;
4365;SDS011;2196;47.422;9.656;2022-10-03T06:57:49;1.70;;;1.23;;
4365;SDS011;2196;47.422;9.656;2022-10-03T07:00:46;1.40;;;1.30;;
4365;SDS011;2196;47.422;9.656;2022-10-03T07:03:29;2.60;;;1.20;;
4365;SDS011;2196;47.422;9.656;2022-10-03T07:06:28;2.77;;;2.07;;
4365;SDS011;2196;47.422;9.656;2022-10-03T07:12:31;1.50;;;1.40;;
4365;SDS011;2196;47.422;9.656;2022-10-03T07:15:42;3.03;;;1.63;;
4365;SDS011;2196;47.422;9.656;2022-10-03T07:18:50;1.80;;;1.67;;
4365;SDS011;2196;47.422;9.656;2022-10-03T07:27:49;3.50;;;3.13;;
4365;SDS011;2196;47.422;9.656;2022-10-03T07:30:31;3.83;;;2.03;;
4365;SDS011;2196;47.422;9.656;2022-10-03T07:36:20;2.77;;;2.23;;
4365;SDS011;2196;47.422;9.656;2022-10-03T07:42:27;4.00;;;2.93;;
4365;SDS011;2196;47.422;9.656;2022-10-03T07:48:09;4.27;;;2.63;;
4365;SDS011;2196;47.422;9.656;2022-10-03T07:50:57;3.43;;;2.80;;
4365;SDS011;2196;47.422;9.656;2022-10-03T07:53:58;3.97;;;2.77;;
4365;SDS011;2196;47.422;9.656;2022-10-03T07:59:56;3.93;;;2.53;;
4365;SDS011;2196;47.422;9.656;2022-10-03T08:05:53;3.27;;;2.60;;
4365;SDS011;2196;47.422;9.656;2022-10-03T08:15:02;2.93;;;2.73;;
4365;SDS011;2196;47.422;9.656;2022-10-03T08:17:45;2.13;;;2.03;;
4365;SDS011;2196;47.422;9.656;2022-10-03T08:26:43;4.67;;;2.73;;
4365;SDS011;2196;47.422;9.656;2022-10-03T08:29:24;3.90;;;2.93;;
4365;SDS011;2196;47.422;9.656;2022-10-03T08:38:09;4.00;;;2.20;;
4365;SDS011;2196;47.422;9.656;2022-10-03T08:50:19;2.80;;;1.50;;
4365;SDS011;2196;47.422;9.656;2022-10-03T08:56:08;1.80;;;1.70;;
4365;SDS011;2196;47.422;9.656;2022-10-03T08:59:06;1.40;;;1.30;;
4365;SDS011;2196;47.422;9.656;2022-10-03T09:01:56;3.03;;;1.73;;
4365;SDS011;2196;47.422;9.656;2022-10-03T09:08:03;2.23;;;1.60;;
4365;SDS011;2196;47.422;9.656;2022-10-03T09:11:08;1.60;;;1.50;;
4365;SDS011;2196;47.422;9.656;2022-10-03T09:16:57;1.63;;;1.53;;
4365;SDS011;2196;47.422;9.656;2022-10-03T09:19:51;4.03;;;1.27;;
4365;SDS011;2196;47.422;9.656;2022-10-03T09:22:48;2.60;;;1.37;;
4365;SDS011;2196;47.422;9.656;2022-10-03T09:25:31;2.23;;;1.60;;
4365;SDS011;2196;47.422;9.656;2022-10-03T09:28:34;1.43;;;1.30;;
4365;SDS011;2196;47.422;9.656;2022-10-03T09:31:32;1.70;;;1.60;;
4365;SDS011;2196;47.422;9.656;2022-10-03T09:34:26;1.80;;;1.70;;
4365;SDS011;2196;47.422;9.656;2022-10-03T09:37:29;1.67;;;1.20;;
4365;SDS011;2196;47.422;9.656;2022-10-03T09:40:30;1.20;;;0.93;;
4365;SDS011;2196;47.422;9.656;2022-10-03T09:43:23;1.10;;;1.00;;
4365;SDS011;2196;47.422;9.656;2022-10-03T09:46:36;1.23;;;1.10;;
4365;SDS011;2196;47.422;9.656;2022-10-03T09:49:51;1.27;;;1.03;;
4365;SDS011;2196;47.422;9.656;2022-10-03T09:52:43;0.73;;;0.73;;
4365;SDS011;2196;47.422;9.656;2022-10-03T09:55:35;0.73;;;0.73;;
4365;SDS011;2196;47.422;9.656;2022-10-03T09:58:28;3.30;;;0.90;;
4365;SDS011;2196;47.422;9.656;2022-10-03T10:01:12;0.83;;;0.70;;
4365;SDS011;2196;47.422;9.656;2022-10-03T10:10:09;2.00;;;0.60;;
4365;SDS011;2196;47.422;9.656;2022-10-03T10:13:09;0.67;;;0.60;;
4365;SDS011;2196;47.422;9.656;2022-10-03T10:21:49;0.50;;;0.50;;
4365;SDS011;2196;47.422;9.656;2022-10-03T10:24:56;0.70;;;0.70;;
4365;SDS011;2196;47.422;9.656;2022-10-03T10:34:01;0.57;;;0.40;;
4365;SDS011;2196;47.422;9.656;2022-10-03T10:36:48;0.60;;;0.40;;
4365;SDS011;2196;47.422;9.656;2022-10-03T10:40:01;0.60;;;0.40;;
4365;SDS011;2196;47.422;9.656;2022-10-03T10:46:09;0.30;;;0.30;;
4365;SDS011;2196;47.422;9.656;2022-10-03T10:52:45;0.47;;;0.47;;
4365;SDS011;2196;47.422;9.656;2022-10-03T10:55:41;0.40;;;0.30;;
4365;SDS011;2196;47.422;9.656;2022-10-03T11:01:51;0.50;;;0.50;;
4365;SDS011;2196;47.422;9.656;2022-10-03T11:05:00;0.40;;;0.40;;
4365;SDS011;2196;47.422;9.656;2022-10-03T11:08:06;1.17;;;0.50;;
4365;SDS011;2196;47.422;9.656;2022-10-03T11:11:25;0.30;;;0.30;;
4365;SDS011;2196;47.422;9.656;2022-10-03T11:14:36;0.40;;;0.40;;
4365;SDS011;2196;47.422;9.656;2022-10-03T11:17:41;0.43;;;0.40;;
4365;SDS011;2196;47.422;9.656;2022-10-03T11:24:07;1.17;;;0.60;;
4365;SDS011;2196;47.422;9.656;2022-10-03T11:27:14;0.30;;;0.30;;
4365;SDS011;2196;47.422;9.656;2022-10-03T11:30:18;0.73;;;0.43;;
4365;SDS011;2196;47.422;9.656;2022-10-03T11:36:33;0.93;;;0.50;;
4365;SDS011;2196;47.422;9.656;2022-10-03T11:39:24;1.60;;;0.30;;
4365;SDS011;2196;47.422;9.656;2022-10-03T11:42:00;0.27;;;0.27;;
4365;SDS011;2196;47.422;9.656;2022-10-03T11:44:31;2.00;;;0.40;;
4365;SDS011;2196;47.422;9.656;2022-10-03T11:53:13;0.40;;;0.30;;
4365;SDS011;2196;47.422;9.656;2022-10-03T11:56:09;0.20;;;0.20;;
4365;SDS011;2196;47.422;9.656;2022-10-03T11:58:55;0.30;;;0.30;;
4365;SDS011;2196;47.422;9.656;2022-10-03T12:01:49;0.30;;;0.30;;
4365;SDS011;2196;47.422;9.656;2022-10-03T12:04:29;0.43;;;0.33;;
4365;SDS011;2196;47.422;9.656;2022-10-03T12:07:05;0.30;;;0.30;;
4365;SDS011;2196;47.422;9.656;2022-10-03T12:10:01;1.67;;;0.87;;
4365;SDS011;2196;47.422;9.656;2022-10-03T12:12:35;1.17;;;0.40;;
4365;SDS011;2196;47.422;9.656;2022-10-03T12:15:14;0.70;;;0.50;;
4365;SDS011;2196;47.422;9.656;2022-10-03T12:17:52;1.07;;;0.47;;
4365;SDS011;2196;47.422;9.656;2022-10-03T12:20:28;1.77;;;0.80;;
4365;SDS011;2196;47.422;9.656;2022-10-03T12:23:06;0.50;;;0.40;;
4365;SDS011;2196;47.422;9.656;2022-10-03T12:25:48;0.93;;;0.47;;
4365;SDS011;2196;47.422;9.656;2022-10-03T12:28:20;1.30;;;0.63;;
4365;SDS011;2196;47.422;9.656;2022-10-03T12:30:51;0.47;;;0.40;;
4365;SDS011;2196;47.422;9.656;2022-10-03T12:33:22;0.33;;;0.30;;
4365;SDS011;2196;47.422;9.656;2022-10-03T12:36:11;0.83;;;0.30;;
4365;SDS011;2196;47.422;9.656;2022-10-03T12:41:52;0.67;;;0.30;;
4365;SDS011;2196;47.422;9.656;2022-10-03T12:44:33;0.27;;;0.27;;
4365;SDS011;2196;47.422;9.656;2022-10-03T12:47:16;0.80;;;0.40;;
4365;SDS011;2196;47.422;9.656;2022-10-03T12:49:52;0.40;;;0.40;;
4365;SDS011;2196;47.422;9.656;2022-10-03T12:52:24;1.20;;;0.40;;
4365;SDS011;2196;47.422;9.656;2022-10-03T12:54:58;0.33;;;0.33;;
4365;SDS011;2196;47.422;9.656;2022-10-03T12:57:46;2.20;;;1.37;;
4365;SDS011;2196;47.422;9.656;2022-10-03T13:00:19;0.50;;;0.50;;
4365;SDS011;2196;47.422;9.656;2022-10-03T13:05:47;0.40;;;0.37;;
4365;SDS011;2196;47.422;9.656;2022-10-03T13:08:39;1.60;;;0.47;;
4365;SDS011;2196;47.422;9.656;2022-10-03T13:11:18;0.30;;;0.30;;
4365;SDS011;2196;47.422;9.656;2022-10-03T13:16:54;2.07;;;0.40;;
4365;SDS011;2196;47.422;9.656;2022-10-03T13:19:27;0.43;;;0.43;;
4365;SDS011;2196;47.422;9.656;2022-10-03T13:22:02;0.50;;;0.50;;
4365;SDS011;2196;47.422;9.656;2022-10-03T13:24:40;1.03;;;0.50;;
4365;SDS011;2196;47.422;9.656;2022-10-03T13:30:03;0.30;;;0.30;;
4365;SDS011;2196;47.422;9.656;2022-10-03T13:32:38;0.53;;;0.30;;
4365;SDS011;2196;47.422;9.656;2022-10-03T13:35:22;0.30;;;0.30;;
4365;SDS011;2196;47.422;9.656;2022-10-03T13:38:19;0.50;;;0.50;;
4365;SDS011;2196;47.422;9.656;2022-10-03T13:41:37;1.33;;;0.70;;
4365;SDS011;2196;47.422;9.656;2022-10-03T13:44:14;0.30;;;0.30;;
4365;SDS011;2196;47.422;9.656;2022-10-03T13:46:44;0.60;;;0.60;;
4365;SDS011;2196;47.422;9.656;2022-10-03T13:49:20;0.50;;;0.47;;
4365;SDS011;2196;47.422;9.656;2022-10-03T13:51:56;0.30;;;0.30;;
4365;SDS011;2196;47.422;9.656;2022-10-03T13:54:35;1.90;;;0.37;;
4365;SDS011;2196;47.422;9.656;2022-10-03T13:57:26;0.70;;;0.50;;
4365;SDS011;2196;47.422;9.656;2022-10-03T14:00:00;0.73;;;0.40;;
4365;SDS011;2196;47.422;9.656;2022-10-03T14:02:43;0.53;;;0.53;;
4365;SDS011;2196;47.422;9.656;2022-10-03T14:08:18;0.50;;;0.50;;
4365;SDS011;2196;47.422;9.656;2022-10-03T14:11:06;0.83;;;0.60;;
4365;SDS011;2196;47.422;9.656;2022-10-03T14:13:55;0.50;;;0.50;;
4365;SDS011;2196;47.422;9.656;2022-10-03T14:16:35;1.47;;;0.60;;
4365;SDS011;2196;47.422;9.656;2022-10-03T14:19:08;1.03;;;0.50;;
4365;SDS011;2196;47.422;9.656;2022-10-03T14:21:56;0.40;;;0.40;;
4365;SDS011;2196;47.422;9.656;2022-10-03T14:24:39;3.00;;;0.97;;
4365;SDS011;2196;47.422;9.656;2022-10-03T14:27:22;0.70;;;0.70;;
4365;SDS011;2196;47.422;9.656;2022-10-03T14:30:08;0.57;;;0.57;;
4365;SDS011;2196;47.422;9.656;2022-10-03T14:32:43;0.90;;;0.50;;
4365;SDS011;2196;47.422;9.656;2022-10-03T14:35:24;0.63;;;0.40;;
4365;SDS011;2196;47.422;9.656;2022-10-03T14:38:03;1.07;;;0.70;;
4365;SDS011;2196;47.422;9.656;2022-10-03T14:41:20;0.80;;;0.80;;
4365;SDS011;2196;47.422;9.656;2022-10-03T14:43:51;0.57;;;0.57;;
4365;SDS011;2196;47.422;9.656;2022-10-03T14:46:20;0.80;;;0.80;;
4365;SDS011;2196;47.422;9.656;2022-10-03T14:48:54;1.67;;;0.60;;
4365;SDS011;2196;47.422;9.656;2022-10-03T14:51:25;1.47;;;0.80;;
4365;SDS011;2196;47.422;9.656;2022-10-03T14:53:57;1.57;;;1.13;;
4365;SDS011;2196;47.422;9.656;2022-10-03T14:56:30;1.63;;;0.70;;
4365;SDS011;2196;47.422;9.656;2022-10-03T14:59:00;2.43;;;0.67;;
4365;SDS011;2196;47.422;9.656;2022-10-03T15:01:36;1.00;;;0.90;;
4365;SDS011;2196;47.422;9.656;2022-10-03T15:04:14;1.60;;;1.30;;
4365;SDS011;2196;47.422;9.656;2022-10-03T15:06:51;1.40;;;1.10;;
4365;SDS011;2196;47.422;9.656;2022-10-03T15:09:21;0.70;;;0.70;;
4365;SDS011;2196;47.422;9.656;2022-10-03T15:11:52;1.17;;;0.97;;
4365;SDS011;2196;47.422;9.656;2022-10-03T15:14:24;1.30;;;1.20;;
4365;SDS011;2196;47.422;9.656;2022-10-03T15:16:55;3.30;;;0.70;;
4365;SDS011;2196;47.422;9.656;2022-10-03T15:19:25;1.33;;;0.63;;
4365;SDS011;2196;47.422;9.656;2022-10-03T15:21:58;1.53;;;0.80;;
4365;SDS011;2196;47.422;9.656;2022-10-03T15:24:31;1.43;;;0.90;;
4365;SDS011;2196;47.422;9.656;2022-10-03T15:27:01;2.17;;;1.00;;
4365;SDS011;2196;47.422;9.656;2022-10-03T15:29:31;0.80;;;0.80;;
4365;SDS011;2196;47.422;9.656;2022-10-03T15:31:59;0.53;;;0.53;;
4365;SDS011;2196;47.422;9.656;2022-10-03T15:34:29;1.00;;;0.80;;
4365;SDS011;2196;47.422;9.656;2022-10-03T15:37:00;1.33;;;1.23;;
4365;SDS011;2196;47.422;9.656;2022-10-03T15:39:35;1.27;;;0.60;;
4365;SDS011;2196;47.422;9.656;2022-10-03T15:42:14;1.20;;;0.90;;
4365;SDS011;2196;47.422;9.656;2022-10-03T15:44:48;1.90;;;1.20;;
4365;SDS011;2196;47.422;9.656;2022-10-03T15:47:19;3.03;;;1.00;;
4365;SDS011;2196;47.422;9.656;2022-10-03T15:49:48;1.70;;;0.50;;
4365;SDS011;2196;47.422;9.656;2022-10-03T15:52:22;1.63;;;0.73;;
4365;SDS011;2196;47.422;9.656;2022-10-03T15:54:52;1.60;;;0.90;;
4365;SDS011;2196;47.422;9.656;2022-10-03T15:57:25;1.03;;;0.60;;
4365;SDS011;2196;47.422;9.656;2022-10-03T15:59:56;0.97;;;0.73;;
4365;SDS011;2196;47.422;9.656;2022-10-03T16:02:25;1.33;;;0.87;;
4365;SDS011;2196;47.422;9.656;2022-10-03T16:04:58;1.70;;;0.90;;
4365;SDS011;2196;47.422;9.656;2022-10-03T16:07:32;1.30;;;0.80;;
4365;SDS011;2196;47.422;9.656;2022-10-03T16:10:10;1.77;;;1.00;;
4365;SDS011;2196;47.422;9.656;2022-10-03T16:12:51;0.60;;;0.60;;
4365;SDS011;2196;47.422;9.656;2022-10-03T16:15:33;0.80;;;0.80;;
4365;SDS011;2196;47.422;9.656;2022-10-03T16:21:06;0.77;;;0.77;;
4365;SDS011;2196;47.422;9.656;2022-10-03T16:23:40;1.10;;;0.97;;
4365;SDS011;2196;47.422;9.656;2022-10-03T16:26:11;1.33;;;1.20;;
4365;SDS011;2196;47.422;9.656;2022-10-03T16:28:48;1.67;;;1.23;;
4365;SDS011;2196;47.422;9.656;2022-10-03T16:31:18;1.10;;;1.10;;
4365;SDS011;2196;47.422;9.656;2022-10-03T16:33:48;1.87;;;1.77;;
4365;SDS011;2196;47.422;9.656;2022-10-03T16:36:19;1.90;;;1.10;;
4365;SDS011;2196;47.422;9.656;2022-10-03T16:38:53;1.27;;;1.17;;
4365;SDS011;2196;47.422;9.656;2022-10-03T16:41:24;4.20;;;1.43;;
4365;SDS011;2196;47.422;9.656;2022-10-03T16:43:56;1.40;;;1.30;;
4365;SDS011;2196;47.422;9.656;2022-10-03T16:46:25;1.80;;;1.70;;
4365;SDS011;2196;47.422;9.656;2022-10-03T16:48:56;1.43;;;1.33;;
4365;SDS011;2196;47.422;9.656;2022-10-03T16:51:44;1.83;;;1.67;;
4365;SDS011;2196;47.422;9.656;2022-10-03T16:54:21;2.13;;;1.37;;
4365;SDS011;2196;47.422;9.656;2022-10-03T16:56:50;3.53;;;2.80;;
4365;SDS011;2196;47.422;9.656;2022-10-03T16:59:23;3.37;;;3.00;;
4365;SDS011;2196;47.422;9.656;2022-10-03T17:01:51;3.20;;;2.03;;
4365;SDS011;2196;47.422;9.656;2022-10-03T17:04:21;3.57;;;2.10;;
4365;SDS011;2196;47.422;9.656;2022-10-03T17:06:50;1.80;;;1.70;;
4365;SDS011;2196;47.422;9.656;2022-10-03T17:09:24;1.80;;;1.80;;
4365;SDS011;2196;47.422;9.656;2022-10-03T17:11:56;1.53;;;1.43;;
4365;SDS011;2196;47.422;9.656;2022-10-03T17:14:25;1.27;;;1.17;;
4365;SDS011;2196;47.422;9.656;2022-10-03T17:16:59;3.03;;;1.70;;
4365;SDS011;2196;47.422;9.656;2022-10-03T17:19:32;2.07;;;1.83;;
4365;SDS011;2196;47.422;9.656;2022-10-03T17:22:04;3.70;;;1.47;;
4365;SDS011;2196;47.422;9.656;2022-10-03T17:24:43;1.43;;;1.33;;
4365;SDS011;2196;47.422;9.656;2022-10-03T17:27:15;1.70;;;1.60;;
4365;SDS011;2196;47.422;9.656;2022-10-03T17:29:49;1.87;;;1.77;;
4365;SDS011;2196;47.422;9.656;2022-10-03T17:32:22;2.73;;;2.47;;
4365;SDS011;2196;47.422;9.656;2022-10-03T17:34:55;3.93;;;3.00;;
4365;SDS011;2196;47.422;9.656;2022-10-03T17:40:33;3.17;;;2.97;;
4365;SDS011;2196;47.422;9.656;2022-10-03T17:43:16;5.70;;;3.90;;
4365;SDS011;2196;47.422;9.656;2022-10-03T17:45:51;4.00;;;3.23;;
4365;SDS011;2196;47.422;9.656;2022-10-03T17:48:25;4.20;;;3.03;;
4365;SDS011;2196;47.422;9.656;2022-10-03T17:51:00;2.90;;;2.70;;
4365;SDS011;2196;47.422;9.656;2022-10-03T17:53:50;2.70;;;2.60;;
4365;SDS011;2196;47.422;9.656;2022-10-03T17:56:22;2.77;;;2.20;;
4365;SDS011;2196;47.422;9.656;2022-10-03T17:58:52;3.57;;;2.43;;
4365;SDS011;2196;47.422;9.656;2022-10-03T18:01:26;3.67;;;3.30;;
4365;SDS011;2196;47.422;9.656;2022-10-03T18:04:00;2.90;;;2.70;;
4365;SDS011;2196;47.422;9.656;2022-10-03T18:06:38;2.43;;;2.17;;
4365;SDS011;2196;47.422;9.656;2022-10-03T18:09:18;2.37;;;2.13;;
4365;SDS011;2196;47.422;9.656;2022-10-03T18:11:53;2.17;;;2.10;;
4365;SDS011;2196;47.422;9.656;2022-10-03T18:14:30;6.17;;;2.63;;
4365;SDS011;2196;47.422;9.656;2022-10-03T18:17:06;2.77;;;2.57;;
4365;SDS011;2196;47.422;9.656;2022-10-03T18:19:45;2.87;;;2.63;;
4365;SDS011;2196;47.422;9.656;2022-10-03T18:22:20;3.17;;;2.90;;
4365;SDS011;2196;47.422;9.656;2022-10-03T18:24:54;3.73;;;2.73;;
4365;SDS011;2196;47.422;9.656;2022-10-03T18:27:39;2.77;;;2.57;;
4365;SDS011;2196;47.422;9.656;2022-10-03T18:30:29;3.20;;;3.00;;
4365;SDS011;2196;47.422;9.656;2022-10-03T18:33:00;2.43;;;2.43;;
4365;SDS011;2196;47.422;9.656;2022-10-03T18:35:30;2.10;;;2.00;;
4365;SDS011;2196;47.422;9.656;2022-10-03T18:38:02;2.30;;;2.10;;
4365;SDS011;2196;47.422;9.656;2022-10-03T18:40:33;2.90;;;2.70;;
4365;SDS011;2196;47.422;9.656;2022-10-03T18:43:14;2.27;;;2.07;;
4365;SDS011;2196;47.422;9.656;2022-10-03T18:45:59;2.87;;;2.60;;
4365;SDS011;2196;47.422;9.656;2022-10-03T18:48:43;3.00;;;2.80;;
4365;SDS011;2196;47.422;9.656;2022-10-03T18:51:20;3.30;;;3.10;;
4365;SDS011;2196;47.422;9.656;2022-10-03T18:53:55;3.60;;;3.00;;
4365;SDS011;2196;47.422;9.656;2022-10-03T18:56:27;3.03;;;2.83;;
4365;SDS011;2196;47.422;9.656;2022-10-03T18:59:01;2.90;;;2.70;;
4365;SDS011;2196;47.422;9.656;2022-10-03T19:01:38;2.70;;;2.50;;
4365;SDS011;2196;47.422;9.656;2022-10-03T19:04:17;2.57;;;2.37;;
4365;SDS011;2196;47.422;9.656;2022-10-03T19:06:53;2.63;;;2.43;;
4365;SDS011;2196;47.422;9.656;2022-10-03T19:09:23;4.40;;;2.23;;
4365;SDS011;2196;47.422;9.656;2022-10-03T19:11:53;3.27;;;2.97;;
4365;SDS011;2196;47.422;9.656;2022-10-03T19:14:27;2.43;;;2.33;;
4365;SDS011;2196;47.422;9.656;2022-10-03T19:17:14;3.73;;;3.53;;
4365;SDS011;2196;47.422;9.656;2022-10-03T19:19:51;5.00;;;4.73;;
4365;SDS011;2196;47.422;9.656;2022-10-03T19:22:27;3.30;;;3.00;;
4365;SDS011;2196;47.422;9.656;2022-10-03T19:24:58;3.17;;;2.97;;
4365;SDS011;2196;47.422;9.656;2022-10-03T19:27:38;2.70;;;2.40;;
4365;SDS011;2196;47.422;9.656;2022-10-03T19:30:09;3.37;;;2.80;;
4365;SDS011;2196;47.422;9.656;2022-10-03T19:32:44;4.40;;;3.47;;
4365;SDS011;2196;47.422;9.656;2022-10-03T19:35:15;3.17;;;2.97;;
4365;SDS011;2196;47.422;9.656;2022-10-03T19:37:46;3.67;;;3.27;;
4365;SDS011;2196;47.422;9.656;2022-10-03T19:40:29;3.57;;;3.27;;
4365;SDS011;2196;47.422;9.656;2022-10-03T19:46:03;3.23;;;2.97;;
4365;SDS011;2196;47.422;9.656;2022-10-03T19:48:47;2.20;;;2.10;;
4365;SDS011;2196;47.422;9.656;2022-10-03T19:51:18;2.83;;;2.60;;
4365;SDS011;2196;47.422;9.656;2022-10-03T19:53:49;3.80;;;2.87;;
4365;SDS011;2196;47.422;9.656;2022-10-03T19:56:18;2.90;;;2.80;;